createdAt,value
2022-09-30T00:01:11.241Z,95779.16
2022-09-30T00:03:38.843Z,95788.50
2022-09-30T00:06:09.106Z,95797.09
2022-09-30T00:08:39.001Z,95794.09
2022-09-30T00:11:09.023Z,95790.66
2022-09-30T00:13:39.141Z,95795.47
2022-09-30T00:16:07.951Z,95797.63
2022-09-30T00:18:36.405Z,95796.03
2022-09-30T00:21:04.267Z,95790.03
2022-09-30T00:23:32.352Z,95790.41
2022-09-30T00:26:03.640Z,95783.00
2022-09-30T00:28:31.549Z,95775.97
2022-09-30T00:31:00.377Z,95774.31
2022-09-30T00:33:28.109Z,95778.28
2022-09-30T00:35:55.855Z,95778.69
2022-09-30T00:38:23.484Z,95780.84
2022-09-30T00:40:51.597Z,95783.84
2022-09-30T00:43:39.752Z,95788.81
2022-09-30T00:46:14.690Z,95796.97
2022-09-30T00:48:42.467Z,95796.19
2022-09-30T00:51:10.438Z,95791.16
2022-09-30T00:53:46.298Z,95797.72
2022-09-30T00:56:18.127Z,95802.13
2022-09-30T00:59:04.469Z,95801.69
2022-09-30T01:01:32.758Z,95799.31
2022-09-30T01:04:03.126Z,95810.09
2022-09-30T01:06:30.916Z,95815.13
2022-09-30T01:08:59.610Z,95816.94
2022-09-30T01:11:29.325Z,95812.53
2022-09-30T01:14:02.387Z,95815.31
2022-09-30T01:16:54.544Z,95807.28
2022-09-30T01:20:08.697Z,95809.66
2022-09-30T01:22:45.163Z,95817.19
2022-09-30T01:25:40.147Z,95822.38
2022-09-30T01:28:34.537Z,95817.41
2022-09-30T01:31:14.269Z,95822.78
2022-09-30T01:33:51.936Z,95822.16
2022-09-30T01:36:29.395Z,95819.91
2022-09-30T01:39:08.124Z,95827.16
2022-09-30T01:41:43.990Z,95824.00
2022-09-30T01:44:17.525Z,95835.38
2022-09-30T01:46:53.465Z,95824.38
2022-09-30T01:49:28.324Z,95822.34
2022-09-30T01:52:02.891Z,95828.34
2022-09-30T01:54:39.046Z,95819.38
2022-09-30T01:57:11.644Z,95824.38
2022-09-30T01:59:46.376Z,95824.75
2022-09-30T02:02:19.629Z,95824.13
2022-09-30T02:04:53.162Z,95818.28
2022-09-30T02:07:25.994Z,95827.44
2022-09-30T02:09:55.697Z,95838.47
2022-09-30T02:12:28.628Z,95834.25
2022-09-30T02:15:02.337Z,95841.44
2022-09-30T02:17:35.752Z,95838.28
2022-09-30T02:20:07.223Z,95841.69
2022-09-30T02:22:44.613Z,95859.25
2022-09-30T02:25:20.204Z,95861.84
2022-09-30T02:27:51.672Z,95859.25
2022-09-30T02:30:20.140Z,95860.25
2022-09-30T02:32:52.806Z,95869.22
2022-09-30T02:35:26.770Z,95858.22
2022-09-30T02:37:59.017Z,95863.97
2022-09-30T02:40:32.705Z,95862.72
2022-09-30T02:43:00.409Z,95866.28
2022-09-30T02:45:32.261Z,95856.91
2022-09-30T02:48:10.602Z,95856.28
2022-09-30T02:50:45.876Z,95862.84
2022-09-30T02:53:23.020Z,95865.19
2022-09-30T02:56:14.570Z,95869.38
2022-09-30T02:58:43.280Z,95860.16
2022-09-30T03:01:13.404Z,95855.94
2022-09-30T03:03:44.258Z,95857.13
2022-09-30T03:06:12.966Z,95856.69
2022-09-30T03:08:42.855Z,95863.25
2022-09-30T03:11:15.781Z,95860.66
2022-09-30T03:14:03.902Z,95865.84
2022-09-30T03:16:47.191Z,95867.44
2022-09-30T03:19:34.619Z,95870.50
2022-09-30T03:22:19.273Z,95873.50
2022-09-30T03:25:01.266Z,95886.50
2022-09-30T03:27:36.835Z,95888.28
2022-09-30T03:30:08.318Z,95893.47
2022-09-30T03:32:53.647Z,95896.38
2022-09-30T03:35:31.991Z,95901.84
2022-09-30T03:38:05.150Z,95905.19
2022-09-30T03:40:42.717Z,95904.38
2022-09-30T03:43:18.449Z,95904.03
2022-09-30T03:45:52.630Z,95907.03
2022-09-30T03:48:21.747Z,95906.69
2022-09-30T03:50:50.865Z,95906.16
2022-09-30T03:53:18.541Z,95909.53
2022-09-30T03:55:52.337Z,95918.34
2022-09-30T03:58:22.144Z,95926.75
2022-09-30T04:00:52.733Z,95924.16
2022-09-30T04:03:22.089Z,95929.69
2022-09-30T04:05:51.225Z,95927.81
2022-09-30T04:08:18.847Z,95932.22
2022-09-30T04:10:46.612Z,95923.53
2022-09-30T04:13:14.464Z,95931.66
2022-09-30T04:15:42.212Z,95931.88
2022-09-30T04:18:09.829Z,95928.09
2022-09-30T04:20:39.317Z,95928.91
2022-09-30T04:23:08.147Z,95935.63
2022-09-30T04:25:35.622Z,95921.75
2022-09-30T04:28:03.927Z,95930.06
2022-09-30T04:30:33.651Z,95934.00
2022-09-30T04:33:02.474Z,95938.56
2022-09-30T04:35:30.260Z,95939.66
2022-09-30T04:37:57.858Z,95940.13
2022-09-30T04:40:26.885Z,95947.69
2022-09-30T04:42:58.136Z,95948.88
2022-09-30T04:45:26.489Z,95956.03
2022-09-30T04:47:54.613Z,95962.47
2022-09-30T04:50:22.872Z,95956.91
2022-09-30T04:52:54.995Z,95947.34
2022-09-30T04:55:22.830Z,95951.28
2022-09-30T04:57:51.998Z,95950.03
2022-09-30T05:00:20.485Z,95944.75
2022-09-30T05:02:48.005Z,95952.88
2022-09-30T05:05:15.623Z,95951.53
2022-09-30T05:07:43.174Z,95938.03
2022-09-30T05:10:11.441Z,95942.88
2022-09-30T05:12:40.915Z,95946.91
2022-09-30T05:15:10.707Z,95946.91
2022-09-30T05:17:38.289Z,95951.28
2022-09-30T05:20:10.649Z,95955.69
2022-09-30T05:22:38.270Z,95957.28
2022-09-30T05:25:06.602Z,95962.47
2022-09-30T05:27:34.053Z,95974.47
2022-09-30T05:30:01.557Z,95976.88
2022-09-30T05:32:31.638Z,95978.84
2022-09-30T05:34:59.114Z,95985.03
2022-09-30T05:37:26.580Z,95985.84
2022-09-30T05:39:55.175Z,95994.00
2022-09-30T05:42:22.764Z,95994.06
2022-09-30T05:44:50.267Z,95994.75
2022-09-30T05:47:17.748Z,95997.19
2022-09-30T05:49:46.712Z,96005.78
2022-09-30T05:52:14.928Z,95999.00
2022-09-30T05:54:42.458Z,96007.03
2022-09-30T05:57:10.219Z,96009.91
2022-09-30T05:59:38.576Z,96007.59
2022-09-30T06:02:06.176Z,96003.38
2022-09-30T06:04:33.794Z,96004.38
2022-09-30T06:07:05.914Z,95994.97
2022-09-30T06:09:36.027Z,95993.38
2022-09-30T06:12:03.586Z,96001.94
2022-09-30T06:14:31.137Z,96002.41
2022-09-30T06:17:00.345Z,96012.44
2022-09-30T06:19:30.264Z,96019.22
2022-09-30T06:21:58.017Z,96028.72
2022-09-30T06:24:27.325Z,96030.78
2022-09-30T06:26:54.838Z,96026.50
2022-09-30T06:29:22.443Z,96030.00
2022-09-30T06:31:50.092Z,96029.88
2022-09-30T06:34:17.649Z,96041.00
2022-09-30T06:36:45.116Z,96045.94
2022-09-30T06:39:13.919Z,96048.88
2022-09-30T06:41:44.009Z,96048.44
2022-09-30T06:44:12.496Z,96044.78
2022-09-30T06:46:52.676Z,96052.91
2022-09-30T06:49:21.370Z,96055.09
2022-09-30T06:51:51.299Z,96055.66
2022-09-30T06:54:19.346Z,96061.25
2022-09-30T06:56:49.684Z,96061.97
2022-09-30T06:59:17.797Z,96060.09
2022-09-30T07:01:46.212Z,96068.63
2022-09-30T07:04:14.098Z,96081.84
2022-09-30T07:06:41.775Z,96078.13
2022-09-30T07:09:10.521Z,96086.25
2022-09-30T07:11:38.627Z,96075.97
2022-09-30T07:14:07.820Z,96089.34
2022-09-30T07:16:35.482Z,96083.59
2022-09-30T07:19:04.009Z,96095.72
2022-09-30T07:21:32.183Z,96099.56
2022-09-30T07:23:59.858Z,96098.38
2022-09-30T07:26:28.746Z,96094.81
2022-09-30T07:28:56.272Z,96092.78
2022-09-30T07:31:32.964Z,96097.59
2022-09-30T07:34:02.566Z,96101.25
2022-09-30T07:36:33.419Z,96088.53
2022-09-30T07:39:05.661Z,96097.97
2022-09-30T07:41:35.746Z,96101.34
2022-09-30T07:44:06.079Z,96102.72
2022-09-30T07:46:38.669Z,96113.31
2022-09-30T07:49:08.789Z,96116.25
2022-09-30T07:51:38.906Z,96120.63
2022-09-30T07:54:09.081Z,96115.72
2022-09-30T07:57:05.103Z,96123.38
2022-09-30T07:59:27.159Z,96130.41
2022-09-30T08:01:56.172Z,96130.19
2022-09-30T08:04:25.375Z,96123.34
2022-09-30T08:06:56.017Z,96123.75
2022-09-30T08:09:25.740Z,96122.16
2022-09-30T08:11:53.608Z,96125.41
2022-09-30T08:14:23.513Z,96133.06
2022-09-30T08:16:51.845Z,96124.00
2022-09-30T08:19:22.682Z,96128.25
2022-09-30T08:21:51.060Z,96134.31
2022-09-30T08:24:18.810Z,96138.69
2022-09-30T08:26:46.623Z,96143.94
2022-09-30T08:29:20.451Z,96142.91
2022-09-30T08:31:52.852Z,96149.09
2022-09-30T08:34:21.912Z,96158.88
2022-09-30T08:36:49.486Z,96154.41
2022-09-30T08:39:17.149Z,96152.97
2022-09-30T08:42:13.899Z,96165.22
2022-09-30T08:44:49.922Z,96162.16
2022-09-30T08:47:32.830Z,96165.00
2022-09-30T08:50:10.115Z,96167.25
2022-09-30T08:52:48.948Z,96170.72
2022-09-30T08:55:22.865Z,96175.16
2022-09-30T08:57:52.520Z,96177.19
2022-09-30T09:00:22.616Z,96170.31
2022-09-30T09:02:53.708Z,96173.19
2022-09-30T09:05:34.965Z,96172.34
2022-09-30T09:08:08.708Z,96174.38
2022-09-30T09:10:44.542Z,96167.91
2022-09-30T09:13:29.673Z,96171.69
2022-09-30T09:16:05.105Z,96171.06
2022-09-30T09:18:42.917Z,96173.44
2022-09-30T09:21:22.693Z,96178.34
2022-09-30T09:23:52.514Z,96178.16
2022-09-30T09:26:20.130Z,96180.41
2022-09-30T09:29:01.027Z,96179.81
2022-09-30T09:31:28.677Z,96172.31
2022-09-30T09:34:00.785Z,96177.91
2022-09-30T09:36:46.765Z,96188.09
2022-09-30T09:39:32.678Z,96187.59
2022-09-30T09:42:10.170Z,96192.38
2022-09-30T09:44:48.158Z,96196.13
2022-09-30T09:47:17.037Z,96197.25
2022-09-30T09:49:46.198Z,96192.53
2022-09-30T09:52:39.854Z,96190.66
2022-09-30T09:55:11.265Z,96191.84
2022-09-30T09:57:40.210Z,96183.97
2022-09-30T10:00:27.489Z,96185.34
2022-09-30T10:03:01.510Z,96188.50
2022-09-30T10:05:30.521Z,96190.84
2022-09-30T10:08:13.334Z,96192.81
2022-09-30T10:10:48.564Z,96202.38
2022-09-30T10:13:21.638Z,96205.88
2022-09-30T10:15:50.117Z,96215.50
2022-09-30T10:18:21.159Z,96207.75
2022-09-30T10:20:54.397Z,96213.31
2022-09-30T10:23:27.927Z,96214.31
2022-09-30T10:25:57.561Z,96209.59
2022-09-30T10:28:28.076Z,96200.53
2022-09-30T10:31:03.048Z,96205.00
2022-09-30T10:33:35.183Z,96207.91
2022-09-30T10:36:16.227Z,96213.84
2022-09-30T10:38:58.194Z,96213.28
2022-09-30T10:41:30.131Z,96219.56
2022-09-30T10:44:00.920Z,96210.06
2022-09-30T10:46:31.601Z,96211.09
2022-09-30T10:49:00.380Z,96217.53
2022-09-30T10:51:36.075Z,96223.16
2022-09-30T10:54:06.479Z,96229.94
2022-09-30T10:56:45.539Z,96233.84
2022-09-30T10:59:20.704Z,96229.72
2022-09-30T11:01:57.342Z,96227.19
2022-09-30T11:04:33.424Z,96238.88
2022-09-30T11:07:13.262Z,96225.50
2022-09-30T11:09:48.726Z,96237.03
2022-09-30T11:12:21.973Z,96248.84
2022-09-30T11:14:58.544Z,96247.00
2022-09-30T11:17:34.930Z,96235.88
2022-09-30T11:20:13.522Z,96238.78
2022-09-30T11:22:47.056Z,96231.56
2022-09-30T11:25:20.681Z,96236.13
2022-09-30T11:27:59.689Z,96241.41
2022-09-30T11:30:37.145Z,96237.75
2022-09-30T11:33:18.760Z,96240.06
2022-09-30T11:35:55.407Z,96239.09
2022-09-30T11:38:46.709Z,96242.31
2022-09-30T11:41:23.176Z,96237.03
2022-09-30T11:44:00.129Z,96233.97
2022-09-30T11:46:47.365Z,96226.63
2022-09-30T11:49:36.349Z,96223.53
2022-09-30T11:52:14.665Z,96227.88
2022-09-30T11:55:00.157Z,96219.84
2022-09-30T11:57:35.801Z,96221.63
2022-09-30T12:00:10.699Z,96228.72
2022-09-30T12:02:40.816Z,96225.28
2022-09-30T12:05:12.879Z,96224.59
2022-09-30T12:07:47.030Z,96222.69
2022-09-30T12:10:24.229Z,96223.25
2022-09-30T12:12:57.389Z,96218.19
2022-09-30T12:15:26.891Z,96222.13
2022-09-30T12:17:59.063Z,96219.41
2022-09-30T12:20:31.341Z,96222.75
2022-09-30T12:23:06.329Z,96223.47
2022-09-30T12:25:40.444Z,96220.97
2022-09-30T12:28:35.353Z,96220.56
2022-09-30T12:31:20.258Z,96218.09
2022-09-30T12:34:00.058Z,96216.16
2022-09-30T12:36:40.953Z,96225.59
2022-09-30T12:39:38.484Z,96232.69
2022-09-30T12:42:38.717Z,96224.00
2022-09-30T12:45:32.913Z,96224.44
2022-09-30T12:48:05.069Z,96224.44
2022-09-30T12:50:40.735Z,96222.28
2022-09-30T12:53:16.737Z,96220.13
2022-09-30T12:55:44.827Z,96217.94
2022-09-30T12:58:22.061Z,96217.28
2022-09-30T13:01:12.563Z,96218.78
2022-09-30T13:03:52.546Z,96214.00
2022-09-30T13:06:22.172Z,96222.94
2022-09-30T13:09:08.051Z,96222.47
2022-09-30T13:11:41.372Z,96220.38
2022-09-30T13:14:26.006Z,96227.25
2022-09-30T13:17:19.969Z,96230.91
2022-09-30T13:19:49.563Z,96233.03
2022-09-30T13:22:53.753Z,96212.84
2022-09-30T13:25:21.605Z,96221.47
2022-09-30T13:27:53.390Z,96221.13
2022-09-30T13:30:37.347Z,96219.19
2022-09-30T13:33:42.761Z,96222.19
2022-09-30T13:36:25.504Z,96225.44
2022-09-30T13:39:07.953Z,96218.00
2022-09-30T13:41:38.577Z,96222.69
2022-09-30T13:44:10.456Z,96225.31
2022-09-30T13:46:43.728Z,96230.28
2022-09-30T13:49:18.720Z,96232.66
2022-09-30T13:51:47.088Z,96234.84
2022-09-30T13:54:31.781Z,96223.84
2022-09-30T13:57:00.836Z,96227.50
2022-09-30T13:59:49.123Z,96237.00
2022-09-30T14:02:38.084Z,96238.63
2022-09-30T14:05:35.093Z,96238.16
2022-09-30T14:08:41.195Z,96233.44
2022-09-30T14:11:28.652Z,96237.69
2022-09-30T14:14:12.932Z,96234.81
2022-09-30T14:17:05.700Z,96219.34
2022-09-30T14:20:04.994Z,96224.63
2022-09-30T14:22:37.341Z,96229.41
2022-09-30T14:25:13.716Z,96229.19
2022-09-30T14:27:50.729Z,96226.88
2022-09-30T14:30:21.269Z,96238.47
2022-09-30T14:32:52.045Z,96237.31
2022-09-30T14:35:22.084Z,96237.22
2022-09-30T14:37:54.263Z,96238.50
2022-09-30T14:40:27.020Z,96245.25
2022-09-30T14:42:59.275Z,96244.13
2022-09-30T14:45:29.724Z,96243.34
2022-09-30T14:48:01.628Z,96243.56
2022-09-30T14:50:41.785Z,96245.13
2022-09-30T14:53:27.939Z,96249.41
2022-09-30T14:55:58.135Z,96246.75
2022-09-30T14:58:30.443Z,96247.78
2022-09-30T15:01:06.063Z,96248.25
2022-09-30T15:03:36.494Z,96248.16
2022-09-30T15:06:08.501Z,96252.06
2022-09-30T15:08:38.109Z,96246.66
2022-09-30T15:11:06.386Z,96250.22
2022-09-30T15:13:36.945Z,96252.97
2022-09-30T15:16:05.318Z,96256.88
2022-09-30T16:32:29.669Z,96248.91
2022-09-30T16:35:20.124Z,96250.38
2022-09-30T16:38:29.746Z,96258.06
2022-09-30T16:41:25.433Z,96261.59
2022-09-30T16:47:22.431Z,96269.00
2022-09-30T16:49:54.763Z,96274.34
2022-09-30T16:55:27.265Z,96276.28
2022-09-30T16:58:05.561Z,96277.41
2022-09-30T17:00:33.985Z,96275.66
2022-09-30T17:03:03.269Z,96281.19
2022-09-30T17:05:33.569Z,96285.13
2022-09-30T17:08:09.439Z,96292.53
2022-09-30T17:11:18.303Z,96286.22
2022-09-30T17:16:37.409Z,96298.75
2022-09-30T17:19:06.490Z,96298.25
2022-09-30T17:21:34.952Z,96302.78
2022-09-30T17:24:07.958Z,96299.25
2022-09-30T17:26:40.323Z,96314.25
2022-09-30T17:31:59.463Z,96303.84
2022-09-30T17:34:28.113Z,96306.69
2022-09-30T17:36:58.980Z,96311.75
2022-09-30T17:39:27.991Z,96300.69
2022-09-30T17:42:13.360Z,96312.16
2022-09-30T17:44:48.551Z,96314.41
2022-09-30T17:47:23.838Z,96315.41
2022-09-30T18:01:36.726Z,96318.66
2022-09-30T18:04:07.715Z,96323.91
2022-09-30T18:06:38.123Z,96328.94
2022-09-30T18:09:15.582Z,96334.56
2022-09-30T18:11:47.188Z,96331.78
2022-09-30T18:17:03.978Z,96337.81
2022-09-30T18:19:35.917Z,96332.19
2022-09-30T18:22:05.537Z,96324.53
2022-09-30T18:24:51.762Z,96324.91
2022-09-30T18:27:23.206Z,96324.72
2022-09-30T18:29:52.914Z,96329.16
2022-09-30T18:32:23.478Z,96333.38
2022-09-30T18:35:00.910Z,96331.38
2022-09-30T18:37:34.405Z,96326.94
2022-09-30T18:40:08.373Z,96329.34
2022-09-30T18:42:50.405Z,96335.97
2022-09-30T18:45:24.237Z,96337.97
2022-09-30T18:47:58.011Z,96350.63
2022-09-30T18:50:32.044Z,96337.53
2022-09-30T18:53:09.111Z,96337.75
2022-09-30T18:55:44.580Z,96347.00
2022-09-30T18:58:16.433Z,96341.16
2022-09-30T19:00:46.494Z,96339.94
2022-09-30T19:03:18.296Z,96337.31
2022-09-30T19:05:49.729Z,96349.38
2022-09-30T19:08:18.206Z,96352.00
2022-09-30T19:10:48.476Z,96355.03
2022-09-30T19:13:18.059Z,96349.38
2022-09-30T19:15:51.583Z,96345.34
2022-09-30T19:18:25.478Z,96352.56
2022-09-30T19:20:56.322Z,96349.34
2022-09-30T19:23:27.117Z,96352.38
2022-09-30T19:26:03.827Z,96349.13
2022-09-30T19:36:49.478Z,96352.72
2022-09-30T19:39:31.497Z,96362.75
2022-09-30T19:42:19.047Z,96364.13
2022-09-30T19:44:50.353Z,96366.53
2022-09-30T19:47:24.601Z,96360.88
2022-09-30T19:50:01.332Z,96378.53
2022-09-30T19:55:18.335Z,96370.28
2022-09-30T19:57:48.081Z,96376.50
2022-09-30T20:00:18.051Z,96380.50
2022-09-30T20:02:48.178Z,96379.28
2022-09-30T20:05:22.123Z,96384.09
2022-09-30T20:07:55.032Z,96382.88
2022-09-30T20:10:26.467Z,96370.38
2022-09-30T20:12:58.883Z,96375.97
2022-09-30T20:15:46.313Z,96377.16
2022-09-30T20:18:23.627Z,96371.72
2022-09-30T20:20:54.092Z,96364.25
2022-09-30T20:23:23.249Z,96362.22
2022-09-30T20:25:52.718Z,96365.59
2022-09-30T20:28:21.342Z,96354.91
2022-09-30T20:30:49.529Z,96349.25
2022-09-30T20:33:19.089Z,96349.84
2022-09-30T20:35:47.006Z,96345.38
2022-09-30T20:38:17.207Z,96329.50
2022-09-30T20:40:46.184Z,96334.28
2022-09-30T20:43:13.741Z,96320.44
2022-09-30T20:45:41.339Z,96332.28
2022-09-30T20:48:09.437Z,96336.34
2022-09-30T20:50:43.044Z,96322.72
2022-09-30T20:53:13.923Z,96323.13
2022-09-30T20:55:44.287Z,96335.81
2022-09-30T20:58:13.874Z,96328.78
2022-09-30T21:00:42.656Z,96333.19
2022-09-30T21:03:13.173Z,96339.03
2022-09-30T21:05:41.217Z,96336.44
2022-09-30T21:08:08.776Z,96334.63
2022-09-30T21:10:38.712Z,96342.06
2022-09-30T21:13:11.276Z,96343.06
2022-09-30T21:15:40.189Z,96347.66
2022-09-30T21:18:08.022Z,96352.88
2022-09-30T21:20:35.929Z,96354.31
2022-09-30T21:23:03.772Z,96348.09
2022-09-30T21:25:32.464Z,96350.91
2022-09-30T21:28:00.152Z,96349.25
2022-09-30T21:30:28.208Z,96348.47
2022-09-30T21:32:57.259Z,96364.13
2022-09-30T21:35:24.873Z,96373.59
2022-09-30T21:37:52.384Z,96380.19
2022-09-30T21:40:19.924Z,96383.53
2022-09-30T21:42:47.531Z,96385.53
2022-09-30T21:45:15.291Z,96385.31
2022-09-30T21:47:42.846Z,96391.44
2022-09-30T21:50:12.342Z,96406.41
2022-09-30T21:52:39.879Z,96408.78
2022-09-30T21:55:08.100Z,96413.75
2022-09-30T21:57:35.658Z,96418.09
2022-09-30T22:00:03.552Z,96411.00
2022-09-30T22:02:31.449Z,96414.16
2022-09-30T22:04:58.990Z,96414.28
2022-09-30T22:07:27.879Z,96406.91
2022-09-30T22:09:55.460Z,96409.44
2022-09-30T22:12:23.268Z,96419.00
2022-09-30T22:14:51.066Z,96415.50
2022-09-30T22:17:18.589Z,96412.63
2022-09-30T22:19:46.215Z,96419.19
2022-09-30T22:22:13.733Z,96416.59
2022-09-30T22:24:42.777Z,96415.34
2022-09-30T22:27:10.973Z,96415.44
2022-09-30T22:29:38.732Z,96416.16
2022-09-30T22:32:06.620Z,96411.66
2022-09-30T22:34:52.013Z,96403.59
2022-09-30T22:37:37.552Z,96407.09
2022-09-30T22:40:07.561Z,96413.38
2022-09-30T22:42:35.773Z,96410.06
2022-09-30T22:45:03.488Z,96395.97
2022-09-30T22:47:31.626Z,96407.91
2022-09-30T22:49:59.276Z,96395.41
2022-09-30T22:52:26.845Z,96396.59
2022-09-30T22:54:54.331Z,96404.94
2022-09-30T22:57:23.896Z,96402.50
2022-09-30T22:59:52.779Z,96399.09
2022-09-30T23:02:21.149Z,96407.06
2022-09-30T23:04:48.785Z,96410.66
2022-09-30T23:07:16.315Z,96402.56
2022-09-30T23:09:43.831Z,96407.50
2022-09-30T23:12:12.143Z,96409.00
2022-09-30T23:14:40.943Z,96413.13
2022-09-30T23:17:08.494Z,96406.81
2022-09-30T23:19:36.010Z,96411.84
2022-09-30T23:22:03.754Z,96411.69
2022-09-30T23:24:31.351Z,96413.13
2022-09-30T23:26:59.987Z,96414.09
2022-09-30T23:29:27.485Z,96402.09
2022-09-30T23:31:56.362Z,96408.91
2022-09-30T23:34:24.279Z,96417.34
2022-09-30T23:36:51.777Z,96419.59
2022-09-30T23:39:20.705Z,96421.19
2022-09-30T23:41:49.774Z,96418.59
2022-09-30T23:44:18.675Z,96425.78
2022-09-30T23:47:00.547Z,96428.38
2022-09-30T23:49:32.305Z,96432.88
2022-09-30T23:51:59.769Z,96435.13
2022-09-30T23:54:27.264Z,96429.91
2022-09-30T23:56:54.853Z,96435.47
2022-09-30T23:59:22.393Z,96431.25
